sensor_id;sensor_type;location;lat;lon;timestamp;P1;durP1;ratioP1;P2;durP2;ratioP2
55003;SDS011;40900;52.710;6.438;2023-02-28T00:00:26;6.85;;;3.55;;
55003;SDS011;40900;52.710;6.438;2023-02-28T00:02:52;6.38;;;3.53;;
55003;SDS011;40900;52.710;6.438;2023-02-28T00:05:19;11.60;;;3.30;;
55003;SDS011;40900;52.710;6.438;2023-02-28T00:07:46;10.02;;;3.53;;
55003;SDS011;40900;52.710;6.438;2023-02-28T00:10:14;6.45;;;3.47;;
55003;SDS011;40900;52.710;6.438;2023-02-28T00:12:46;8.10;;;3.55;;
55003;SDS011;40900;52.710;6.438;2023-02-28T00:15:12;9.65;;;4.05;;
55003;SDS011;40900;52.710;6.438;2023-02-28T00:17:38;9.48;;;3.53;;
55003;SDS011;40900;52.710;6.438;2023-02-28T00:20:04;10.35;;;3.72;;
55003;SDS011;40900;52.710;6.438;2023-02-28T00:22:35;10.10;;;3.95;;
55003;SDS011;40900;52.710;6.438;2023-02-28T00:25:02;9.15;;;3.38;;
55003;SDS011;40900;52.710;6.438;2023-02-28T00:27:29;7.88;;;3.55;;
55003;SDS011;40900;52.710;6.438;2023-02-28T00:29:55;12.52;;;3.85;;
55003;SDS011;40900;52.710;6.438;2023-02-28T00:32:21;12.43;;;4.25;;
55003;SDS011;40900;52.710;6.438;2023-02-28T00:34:47;11.70;;;4.47;;
55003;SDS011;40900;52.710;6.438;2023-02-28T00:37:12;10.50;;;4.05;;
55003;SDS011;40900;52.710;6.438;2023-02-28T00:39:38;10.98;;;4.38;;
55003;SDS011;40900;52.710;6.438;2023-02-28T00:42:05;12.45;;;4.05;;
55003;SDS011;40900;52.710;6.438;2023-02-28T00:44:31;8.85;;;3.90;;
55003;SDS011;40900;52.710;6.438;2023-02-28T00:46:57;12.23;;;4.97;;
55003;SDS011;40900;52.710;6.438;2023-02-28T00:49:24;8.95;;;4.22;;
55003;SDS011;40900;52.710;6.438;2023-02-28T00:51:52;13.48;;;4.72;;
55003;SDS011;40900;52.710;6.438;2023-02-28T00:54:18;10.20;;;4.55;;
55003;SDS011;40900;52.710;6.438;2023-02-28T00:56:44;13.23;;;4.55;;
55003;SDS011;40900;52.710;6.438;2023-02-28T00:59:11;9.95;;;4.38;;
55003;SDS011;40900;52.710;6.438;2023-02-28T01:01:38;13.05;;;4.60;;
55003;SDS011;40900;52.710;6.438;2023-02-28T01:04:04;16.80;;;5.10;;
55003;SDS011;40900;52.710;6.438;2023-02-28T01:06:30;10.40;;;4.70;;
55003;SDS011;40900;52.710;6.438;2023-02-28T01:08:56;16.35;;;5.68;;
55003;SDS011;40900;52.710;6.438;2023-02-28T01:11:23;13.45;;;4.43;;
55003;SDS011;40900;52.710;6.438;2023-02-28T01:13:49;11.05;;;4.65;;
55003;SDS011;40900;52.710;6.438;2023-02-28T01:16:15;12.55;;;4.45;;
55003;SDS011;40900;52.710;6.438;2023-02-28T01:18:41;9.02;;;4.10;;
55003;SDS011;40900;52.710;6.438;2023-02-28T01:21:11;10.23;;;3.78;;
55003;SDS011;40900;52.710;6.438;2023-02-28T01:23:39;13.63;;;4.50;;
55003;SDS011;40900;52.710;6.438;2023-02-28T01:26:06;8.32;;;3.75;;
55003;SDS011;40900;52.710;6.438;2023-02-28T01:28:34;10.45;;;3.75;;
55003;SDS011;40900;52.710;6.438;2023-02-28T01:31:00;10.77;;;4.20;;
55003;SDS011;40900;52.710;6.438;2023-02-28T01:33:26;10.93;;;4.40;;
55003;SDS011;40900;52.710;6.438;2023-02-28T01:35:58;13.23;;;5.18;;
55003;SDS011;40900;52.710;6.438;2023-02-28T01:38:28;8.80;;;4.00;;
55003;SDS011;40900;52.710;6.438;2023-02-28T01:40:54;12.13;;;3.90;;
55003;SDS011;40900;52.710;6.438;2023-02-28T01:43:25;10.15;;;4.25;;
55003;SDS011;40900;52.710;6.438;2023-02-28T01:45:54;11.55;;;4.32;;
55003;SDS011;40900;52.710;6.438;2023-02-28T01:48:22;10.25;;;4.03;;
55003;SDS011;40900;52.710;6.438;2023-02-28T01:50:53;9.63;;;4.35;;
55003;SDS011;40900;52.710;6.438;2023-02-28T01:53:26;12.25;;;4.38;;
55003;SDS011;40900;52.710;6.438;2023-02-28T01:55:59;8.18;;;3.97;;
55003;SDS011;40900;52.710;6.438;2023-02-28T01:58:25;9.45;;;4.70;;
55003;SDS011;40900;52.710;6.438;2023-02-28T02:00:51;7.63;;;4.28;;
55003;SDS011;40900;52.710;6.438;2023-02-28T02:03:17;10.00;;;4.78;;
55003;SDS011;40900;52.710;6.438;2023-02-28T02:05:45;10.32;;;4.80;;
55003;SDS011;40900;52.710;6.438;2023-02-28T02:08:15;9.05;;;4.63;;
55003;SDS011;40900;52.710;6.438;2023-02-28T02:10:50;8.77;;;4.28;;
55003;SDS011;40900;52.710;6.438;2023-02-28T02:13:25;10.68;;;4.35;;
55003;SDS011;40900;52.710;6.438;2023-02-28T02:35:12;13.38;;;5.63;;
55003;SDS011;40900;52.710;6.438;2023-02-28T02:37:46;11.98;;;6.03;;
55003;SDS011;40900;52.710;6.438;2023-02-28T02:40:15;13.90;;;6.13;;
55003;SDS011;40900;52.710;6.438;2023-02-28T02:42:58;14.18;;;7.45;;
55003;SDS011;40900;52.710;6.438;2023-02-28T02:45:45;19.10;;;8.00;;
55003;SDS011;40900;52.710;6.438;2023-02-28T02:48:18;15.48;;;9.20;;
55003;SDS011;40900;52.710;6.438;2023-02-28T02:50:57;13.95;;;9.27;;
55003;SDS011;40900;52.710;6.438;2023-02-28T02:53:29;17.40;;;10.00;;
55003;SDS011;40900;52.710;6.438;2023-02-28T02:55:59;19.92;;;10.25;;
55003;SDS011;40900;52.710;6.438;2023-02-28T02:58:37;18.58;;;11.05;;
55003;SDS011;40900;52.710;6.438;2023-02-28T03:01:09;16.13;;;11.35;;
55003;SDS011;40900;52.710;6.438;2023-02-28T03:03:38;15.63;;;11.32;;
55003;SDS011;40900;52.710;6.438;2023-02-28T03:06:04;15.25;;;11.43;;
55003;SDS011;40900;52.710;6.438;2023-02-28T03:08:33;22.50;;;12.45;;
55003;SDS011;40900;52.710;6.438;2023-02-28T03:11:02;17.83;;;12.07;;
55003;SDS011;40900;52.710;6.438;2023-02-28T03:27:01;18.85;;;12.98;;
55003;SDS011;40900;52.710;6.438;2023-02-28T03:29:37;24.63;;;13.30;;
55003;SDS011;40900;52.710;6.438;2023-02-28T03:32:11;21.10;;;13.10;;
55003;SDS011;40900;52.710;6.438;2023-02-28T03:35:14;25.75;;;14.05;;
55003;SDS011;40900;52.710;6.438;2023-02-28T03:37:46;24.60;;;13.77;;
55003;SDS011;40900;52.710;6.438;2023-02-28T03:40:21;19.98;;;14.05;;
55003;SDS011;40900;52.710;6.438;2023-02-28T03:42:51;20.38;;;14.02;;
55003;SDS011;40900;52.710;6.438;2023-02-28T03:45:25;23.45;;;13.95;;
55003;SDS011;40900;52.710;6.438;2023-02-28T03:48:02;20.58;;;15.63;;
55003;SDS011;40900;52.710;6.438;2023-02-28T03:50:49;25.10;;;14.82;;
55003;SDS011;40900;52.710;6.438;2023-02-28T03:53:21;23.92;;;15.20;;
55003;SDS011;40900;52.710;6.438;2023-02-28T03:55:57;23.40;;;15.45;;
55003;SDS011;40900;52.710;6.438;2023-02-28T03:58:49;19.63;;;14.27;;
55003;SDS011;40900;52.710;6.438;2023-02-28T04:01:25;24.02;;;14.63;;
55003;SDS011;40900;52.710;6.438;2023-02-28T04:03:57;22.85;;;14.05;;
55003;SDS011;40900;52.710;6.438;2023-02-28T04:06:23;22.38;;;14.70;;
55003;SDS011;40900;52.710;6.438;2023-02-28T04:08:50;20.83;;;13.77;;
55003;SDS011;40900;52.710;6.438;2023-02-28T04:13:48;23.70;;;14.75;;
55003;SDS011;40900;52.710;6.438;2023-02-28T04:16:14;24.33;;;15.30;;
55003;SDS011;40900;52.710;6.438;2023-02-28T04:18:41;24.10;;;14.38;;
55003;SDS011;40900;52.710;6.438;2023-02-28T04:21:08;19.33;;;14.70;;
55003;SDS011;40900;52.710;6.438;2023-02-28T04:23:35;21.55;;;14.10;;
55003;SDS011;40900;52.710;6.438;2023-02-28T04:26:01;28.00;;;14.68;;
55003;SDS011;40900;52.710;6.438;2023-02-28T04:28:27;23.38;;;15.10;;
55003;SDS011;40900;52.710;6.438;2023-02-28T04:31:00;24.33;;;15.18;;
55003;SDS011;40900;52.710;6.438;2023-02-28T04:33:27;22.27;;;14.48;;
55003;SDS011;40900;52.710;6.438;2023-02-28T04:36:07;24.23;;;16.58;;
55003;SDS011;40900;52.710;6.438;2023-02-28T04:38:34;25.33;;;16.50;;
55003;SDS011;40900;52.710;6.438;2023-02-28T04:41:02;21.50;;;14.98;;
55003;SDS011;40900;52.710;6.438;2023-02-28T04:43:28;19.73;;;15.18;;
55003;SDS011;40900;52.710;6.438;2023-02-28T04:45:54;19.40;;;15.02;;
55003;SDS011;40900;52.710;6.438;2023-02-28T04:48:24;24.75;;;16.42;;
55003;SDS011;40900;52.710;6.438;2023-02-28T04:50:52;21.42;;;15.18;;
55003;SDS011;40900;52.710;6.438;2023-02-28T04:53:18;21.27;;;14.02;;
55003;SDS011;40900;52.710;6.438;2023-02-28T04:55:44;21.58;;;12.35;;
55003;SDS011;40900;52.710;6.438;2023-02-28T04:58:10;19.50;;;12.32;;
55003;SDS011;40900;52.710;6.438;2023-02-28T05:00:37;15.43;;;9.45;;
55003;SDS011;40900;52.710;6.438;2023-02-28T05:03:02;14.18;;;10.23;;
55003;SDS011;40900;52.710;6.438;2023-02-28T05:05:28;16.00;;;11.27;;
55003;SDS011;40900;52.710;6.438;2023-02-28T05:07:54;17.52;;;10.70;;
55003;SDS011;40900;52.710;6.438;2023-02-28T05:10:20;22.42;;;12.18;;
55003;SDS011;40900;52.710;6.438;2023-02-28T05:12:47;18.95;;;12.65;;
55003;SDS011;40900;52.710;6.438;2023-02-28T05:15:13;20.30;;;12.43;;
55003;SDS011;40900;52.710;6.438;2023-02-28T05:17:40;19.15;;;13.00;;
55003;SDS011;40900;52.710;6.438;2023-02-28T05:20:07;18.20;;;13.07;;
55003;SDS011;40900;52.710;6.438;2023-02-28T05:22:38;21.15;;;13.25;;
55003;SDS011;40900;52.710;6.438;2023-02-28T05:25:08;22.02;;;13.48;;
55003;SDS011;40900;52.710;6.438;2023-02-28T05:27:38;20.15;;;13.10;;
55003;SDS011;40900;52.710;6.438;2023-02-28T05:30:05;18.13;;;13.18;;
55003;SDS011;40900;52.710;6.438;2023-02-28T05:32:32;20.92;;;13.02;;
55003;SDS011;40900;52.710;6.438;2023-02-28T05:34:57;19.10;;;13.25;;
55003;SDS011;40900;52.710;6.438;2023-02-28T05:37:23;18.33;;;10.80;;
55003;SDS011;40900;52.710;6.438;2023-02-28T05:39:49;17.40;;;11.77;;
55003;SDS011;40900;52.710;6.438;2023-02-28T05:42:14;21.02;;;12.02;;
55003;SDS011;40900;52.710;6.438;2023-02-28T05:44:40;15.25;;;10.88;;
55003;SDS011;40900;52.710;6.438;2023-02-28T05:47:07;15.52;;;10.75;;
55003;SDS011;40900;52.710;6.438;2023-02-28T05:49:32;21.60;;;12.43;;
55003;SDS011;40900;52.710;6.438;2023-02-28T05:51:58;22.95;;;11.43;;
55003;SDS011;40900;52.710;6.438;2023-02-28T05:54:24;15.63;;;12.23;;
55003;SDS011;40900;52.710;6.438;2023-02-28T05:56:50;19.60;;;13.18;;
55003;SDS011;40900;52.710;6.438;2023-02-28T05:59:15;19.85;;;13.35;;
55003;SDS011;40900;52.710;6.438;2023-02-28T06:01:42;22.05;;;13.55;;
55003;SDS011;40900;52.710;6.438;2023-02-28T06:04:16;18.25;;;13.90;;
55003;SDS011;40900;52.710;6.438;2023-02-28T06:06:47;19.10;;;12.95;;
55003;SDS011;40900;52.710;6.438;2023-02-28T06:09:14;19.33;;;12.77;;
55003;SDS011;40900;52.710;6.438;2023-02-28T06:11:40;21.70;;;13.50;;
55003;SDS011;40900;52.710;6.438;2023-02-28T06:14:06;21.27;;;14.18;;
55003;SDS011;40900;52.710;6.438;2023-02-28T06:16:37;22.38;;;14.73;;
55003;SDS011;40900;52.710;6.438;2023-02-28T06:19:03;22.83;;;16.02;;
55003;SDS011;40900;52.710;6.438;2023-02-28T06:21:29;24.85;;;13.85;;
55003;SDS011;40900;52.710;6.438;2023-02-28T06:23:56;17.75;;;13.60;;
55003;SDS011;40900;52.710;6.438;2023-02-28T06:26:22;22.40;;;15.20;;
55003;SDS011;40900;52.710;6.438;2023-02-28T06:28:49;20.58;;;14.18;;
55003;SDS011;40900;52.710;6.438;2023-02-28T06:31:15;22.92;;;14.88;;
55003;SDS011;40900;52.710;6.438;2023-02-28T06:33:42;21.98;;;14.45;;
55003;SDS011;40900;52.710;6.438;2023-02-28T06:36:09;22.63;;;14.48;;
55003;SDS011;40900;52.710;6.438;2023-02-28T06:38:35;23.27;;;15.15;;
55003;SDS011;40900;52.710;6.438;2023-02-28T06:41:02;21.98;;;15.88;;
55003;SDS011;40900;52.710;6.438;2023-02-28T06:43:30;22.08;;;15.23;;
55003;SDS011;40900;52.710;6.438;2023-02-28T06:45:58;27.02;;;15.90;;
55003;SDS011;40900;52.710;6.438;2023-02-28T06:48:26;21.98;;;15.98;;
55003;SDS011;40900;52.710;6.438;2023-02-28T06:50:52;27.15;;;14.55;;
55003;SDS011;40900;52.710;6.438;2023-02-28T06:53:37;24.27;;;15.23;;
55003;SDS011;40900;52.710;6.438;2023-02-28T06:56:04;20.05;;;14.80;;
55003;SDS011;40900;52.710;6.438;2023-02-28T06:58:31;22.73;;;16.00;;
55003;SDS011;40900;52.710;6.438;2023-02-28T07:00:57;22.33;;;14.90;;
55003;SDS011;40900;52.710;6.438;2023-02-28T07:03:23;19.48;;;14.38;;
55003;SDS011;40900;52.710;6.438;2023-02-28T07:05:48;22.73;;;15.00;;
55003;SDS011;40900;52.710;6.438;2023-02-28T07:08:14;23.48;;;15.30;;
55003;SDS011;40900;52.710;6.438;2023-02-28T07:10:40;22.77;;;14.63;;
55003;SDS011;40900;52.710;6.438;2023-02-28T07:13:07;23.13;;;14.43;;
55003;SDS011;40900;52.710;6.438;2023-02-28T07:15:35;21.77;;;14.38;;
55003;SDS011;40900;52.710;6.438;2023-02-28T07:18:01;25.58;;;14.73;;
55003;SDS011;40900;52.710;6.438;2023-02-28T07:20:26;20.13;;;13.38;;
55003;SDS011;40900;52.710;6.438;2023-02-28T07:22:52;24.17;;;14.30;;
55003;SDS011;40900;52.710;6.438;2023-02-28T07:25:24;21.10;;;15.45;;
55003;SDS011;40900;52.710;6.438;2023-02-28T07:27:54;21.67;;;14.43;;
55003;SDS011;40900;52.710;6.438;2023-02-28T07:30:21;18.70;;;13.85;;
55003;SDS011;40900;52.710;6.438;2023-02-28T07:32:46;21.98;;;14.18;;
55003;SDS011;40900;52.710;6.438;2023-02-28T07:35:13;22.67;;;13.40;;
55003;SDS011;40900;52.710;6.438;2023-02-28T07:37:40;16.90;;;12.27;;
55003;SDS011;40900;52.710;6.438;2023-02-28T07:40:09;20.88;;;13.50;;
55003;SDS011;40900;52.710;6.438;2023-02-28T07:42:39;17.63;;;12.93;;
55003;SDS011;40900;52.710;6.438;2023-02-28T07:45:06;21.80;;;12.02;;
55003;SDS011;40900;52.710;6.438;2023-02-28T07:47:33;20.98;;;12.70;;
55003;SDS011;40900;52.710;6.438;2023-02-28T07:49:59;19.88;;;11.23;;
55003;SDS011;40900;52.710;6.438;2023-02-28T07:52:25;21.90;;;12.25;;
55003;SDS011;40900;52.710;6.438;2023-02-28T07:54:51;17.33;;;12.32;;
55003;SDS011;40900;52.710;6.438;2023-02-28T07:57:17;22.60;;;11.77;;
55003;SDS011;40900;52.710;6.438;2023-02-28T07:59:43;13.90;;;9.25;;
55003;SDS011;40900;52.710;6.438;2023-02-28T08:02:12;13.82;;;9.82;;
55003;SDS011;40900;52.710;6.438;2023-02-28T08:04:41;13.23;;;9.25;;
55003;SDS011;40900;52.710;6.438;2023-02-28T08:07:07;13.10;;;8.07;;
55003;SDS011;40900;52.710;6.438;2023-02-28T08:09:33;12.70;;;8.10;;
55003;SDS011;40900;52.710;6.438;2023-02-28T08:11:59;9.27;;;7.13;;
55003;SDS011;40900;52.710;6.438;2023-02-28T08:14:25;12.23;;;8.10;;
55003;SDS011;40900;52.710;6.438;2023-02-28T08:16:50;12.10;;;7.43;;
55003;SDS011;40900;52.710;6.438;2023-02-28T08:19:16;12.10;;;6.82;;
55003;SDS011;40900;52.710;6.438;2023-02-28T08:21:42;13.57;;;7.30;;
55003;SDS011;40900;52.710;6.438;2023-02-28T08:24:08;9.75;;;7.10;;
55003;SDS011;40900;52.710;6.438;2023-02-28T08:26:33;11.38;;;8.35;;
55003;SDS011;40900;52.710;6.438;2023-02-28T08:28:59;12.05;;;7.45;;
55003;SDS011;40900;52.710;6.438;2023-02-28T08:31:25;13.82;;;8.05;;
55003;SDS011;40900;52.710;6.438;2023-02-28T08:33:50;13.80;;;8.15;;
55003;SDS011;40900;52.710;6.438;2023-02-28T08:36:18;12.27;;;8.35;;
55003;SDS011;40900;52.710;6.438;2023-02-28T08:38:44;10.27;;;7.40;;
55003;SDS011;40900;52.710;6.438;2023-02-28T08:41:11;8.65;;;6.57;;
55003;SDS011;40900;52.710;6.438;2023-02-28T08:43:38;13.18;;;7.30;;
55003;SDS011;40900;52.710;6.438;2023-02-28T08:46:04;9.88;;;7.00;;
55003;SDS011;40900;52.710;6.438;2023-02-28T08:48:32;12.05;;;7.88;;
55003;SDS011;40900;52.710;6.438;2023-02-28T08:51:10;10.02;;;6.65;;
55003;SDS011;40900;52.710;6.438;2023-02-28T08:53:41;14.07;;;7.50;;
55003;SDS011;40900;52.710;6.438;2023-02-28T08:56:08;12.50;;;7.43;;
55003;SDS011;40900;52.710;6.438;2023-02-28T08:58:36;11.60;;;6.63;;
55003;SDS011;40900;52.710;6.438;2023-02-28T09:03:55;8.23;;;5.93;;
55003;SDS011;40900;52.710;6.438;2023-02-28T09:06:22;12.15;;;6.53;;
55003;SDS011;40900;52.710;6.438;2023-02-28T09:08:49;10.05;;;5.97;;
55003;SDS011;40900;52.710;6.438;2023-02-28T09:11:15;6.82;;;4.93;;
55003;SDS011;40900;52.710;6.438;2023-02-28T09:13:41;6.93;;;5.00;;
55003;SDS011;40900;52.710;6.438;2023-02-28T09:16:08;8.18;;;5.72;;
55003;SDS011;40900;52.710;6.438;2023-02-28T09:18:37;8.63;;;5.90;;
55003;SDS011;40900;52.710;6.438;2023-02-28T09:21:07;8.80;;;5.57;;
55003;SDS011;40900;52.710;6.438;2023-02-28T09:23:38;8.70;;;5.90;;
55003;SDS011;40900;52.710;6.438;2023-02-28T09:26:04;10.98;;;5.80;;
55003;SDS011;40900;52.710;6.438;2023-02-28T09:28:30;11.15;;;6.15;;
55003;SDS011;40900;52.710;6.438;2023-02-28T09:30:56;10.82;;;6.78;;
55003;SDS011;40900;52.710;6.438;2023-02-28T09:33:24;8.93;;;6.18;;
55003;SDS011;40900;52.710;6.438;2023-02-28T09:35:50;10.27;;;5.15;;
55003;SDS011;40900;52.710;6.438;2023-02-28T09:38:22;9.20;;;5.43;;
55003;SDS011;40900;52.710;6.438;2023-02-28T09:40:52;8.75;;;5.55;;
55003;SDS011;40900;52.710;6.438;2023-02-28T09:43:21;8.00;;;4.40;;
55003;SDS011;40900;52.710;6.438;2023-02-28T09:45:51;6.40;;;4.28;;
55003;SDS011;40900;52.710;6.438;2023-02-28T09:48:34;6.88;;;3.60;;
55003;SDS011;40900;52.710;6.438;2023-02-28T09:53:54;4.22;;;2.67;;
55003;SDS011;40900;52.710;6.438;2023-02-28T09:56:22;7.18;;;3.40;;
55003;SDS011;40900;52.710;6.438;2023-02-28T09:59:00;6.53;;;3.00;;
55003;SDS011;40900;52.710;6.438;2023-02-28T10:07:00;5.65;;;1.70;;
55003;SDS011;40900;52.710;6.438;2023-02-28T10:09:32;3.22;;;2.10;;
55003;SDS011;40900;52.710;6.438;2023-02-28T10:12:00;3.72;;;2.00;;
55003;SDS011;40900;52.710;6.438;2023-02-28T10:14:29;4.45;;;1.85;;
55003;SDS011;40900;52.710;6.438;2023-02-28T10:16:59;4.07;;;2.22;;
55003;SDS011;40900;52.710;6.438;2023-02-28T10:19:46;5.47;;;2.30;;
55003;SDS011;40900;52.710;6.438;2023-02-28T10:22:41;4.15;;;2.13;;
55003;SDS011;40900;52.710;6.438;2023-02-28T10:25:32;5.45;;;2.20;;
55003;SDS011;40900;52.710;6.438;2023-02-28T10:28:13;4.15;;;2.40;;
55003;SDS011;40900;52.710;6.438;2023-02-28T10:30:45;4.63;;;2.13;;
55003;SDS011;40900;52.710;6.438;2023-02-28T10:33:29;3.38;;;2.17;;
55003;SDS011;40900;52.710;6.438;2023-02-28T10:35:57;3.78;;;2.05;;
55003;SDS011;40900;52.710;6.438;2023-02-28T10:38:27;7.90;;;2.40;;
55003;SDS011;40900;52.710;6.438;2023-02-28T10:41:42;4.53;;;2.50;;
55003;SDS011;40900;52.710;6.438;2023-02-28T10:44:18;4.53;;;2.33;;
55003;SDS011;40900;52.710;6.438;2023-02-28T10:46:46;4.43;;;2.70;;
55003;SDS011;40900;52.710;6.438;2023-02-28T10:49:14;6.55;;;2.90;;
55003;SDS011;40900;52.710;6.438;2023-02-28T10:51:46;4.70;;;2.53;;
55003;SDS011;40900;52.710;6.438;2023-02-28T10:54:22;4.03;;;2.50;;
55003;SDS011;40900;52.710;6.438;2023-02-28T10:59:38;7.07;;;2.75;;
55003;SDS011;40900;52.710;6.438;2023-02-28T11:02:17;3.78;;;2.33;;
55003;SDS011;40900;52.710;6.438;2023-02-28T11:05:00;4.35;;;2.83;;
55003;SDS011;40900;52.710;6.438;2023-02-28T11:07:26;4.32;;;3.00;;
55003;SDS011;40900;52.710;6.438;2023-02-28T11:09:56;4.75;;;2.97;;
55003;SDS011;40900;52.710;6.438;2023-02-28T11:12:31;4.93;;;3.03;;
55003;SDS011;40900;52.710;6.438;2023-02-28T11:15:00;6.45;;;2.40;;
55003;SDS011;40900;52.710;6.438;2023-02-28T11:17:32;4.25;;;1.80;;
55003;SDS011;40900;52.710;6.438;2023-02-28T11:20:05;3.50;;;1.70;;
55003;SDS011;40900;52.710;6.438;2023-02-28T11:22:33;3.78;;;1.90;;
55003;SDS011;40900;52.710;6.438;2023-02-28T11:27:58;4.75;;;2.10;;
55003;SDS011;40900;52.710;6.438;2023-02-28T11:30:36;3.50;;;1.70;;
55003;SDS011;40900;52.710;6.438;2023-02-28T11:33:23;3.55;;;1.77;;
55003;SDS011;40900;52.710;6.438;2023-02-28T11:36:31;4.78;;;1.75;;
55003;SDS011;40900;52.710;6.438;2023-02-28T11:38:50;2.85;;;1.50;;
55003;SDS011;40900;52.710;6.438;2023-02-28T11:44:16;4.18;;;1.80;;
55003;SDS011;40900;52.710;6.438;2023-02-28T11:47:28;3.50;;;1.50;;
55003;SDS011;40900;52.710;6.438;2023-02-28T11:52:45;2.50;;;1.50;;
55003;SDS011;40900;52.710;6.438;2023-02-28T11:55:37;3.25;;;1.55;;
55003;SDS011;40900;52.710;6.438;2023-02-28T12:03:58;4.40;;;1.90;;
55003;SDS011;40900;52.710;6.438;2023-02-28T12:12:21;3.30;;;1.77;;
55003;SDS011;40900;52.710;6.438;2023-02-28T12:20:33;4.97;;;1.83;;
55003;SDS011;40900;52.710;6.438;2023-02-28T12:26:16;3.15;;;2.25;;
55003;SDS011;40900;52.710;6.438;2023-02-28T12:29:11;5.55;;;2.13;;
55003;SDS011;40900;52.710;6.438;2023-02-28T12:31:45;2.50;;;1.70;;
55003;SDS011;40900;52.710;6.438;2023-02-28T12:34:19;5.65;;;1.80;;
55003;SDS011;40900;52.710;6.438;2023-02-28T12:36:48;4.68;;;1.90;;
55003;SDS011;40900;52.710;6.438;2023-02-28T12:39:24;3.33;;;1.90;;
55003;SDS011;40900;52.710;6.438;2023-02-28T12:42:00;5.40;;;1.80;;
55003;SDS011;40900;52.710;6.438;2023-02-28T12:44:52;4.15;;;1.90;;
55003;SDS011;40900;52.710;6.438;2023-02-28T12:47:23;3.03;;;1.70;;
55003;SDS011;40900;52.710;6.438;2023-02-28T12:49:50;4.28;;;1.50;;
55003;SDS011;40900;52.710;6.438;2023-02-28T12:58:15;4.93;;;2.03;;
55003;SDS011;40900;52.710;6.438;2023-02-28T13:00:49;3.60;;;1.77;;
55003;SDS011;40900;52.710;6.438;2023-02-28T13:06:14;3.05;;;1.60;;
55003;SDS011;40900;52.710;6.438;2023-02-28T13:08:56;4.50;;;1.70;;
55003;SDS011;40900;52.710;6.438;2023-02-28T13:11:33;2.53;;;1.75;;
55003;SDS011;40900;52.710;6.438;2023-02-28T13:14:06;5.22;;;2.00;;
55003;SDS011;40900;52.710;6.438;2023-02-28T13:22:20;3.35;;;1.80;;
55003;SDS011;40900;52.710;6.438;2023-02-28T13:26:04;4.28;;;2.03;;
55003;SDS011;40900;52.710;6.438;2023-02-28T13:28:00;4.22;;;2.15;;
55003;SDS011;40900;52.710;6.438;2023-02-28T13:33:36;3.50;;;1.88;;
55003;SDS011;40900;52.710;6.438;2023-02-28T13:36:26;3.05;;;1.90;;
55003;SDS011;40900;52.710;6.438;2023-02-28T13:38:57;3.47;;;2.15;;
55003;SDS011;40900;52.710;6.438;2023-02-28T13:47:20;3.85;;;2.10;;
55003;SDS011;40900;52.710;6.438;2023-02-28T13:49:27;4.93;;;1.90;;
55003;SDS011;40900;52.710;6.438;2023-02-28T14:05:42;3.58;;;2.10;;
55003;SDS011;40900;52.710;6.438;2023-02-28T14:08:19;3.15;;;1.98;;
55003;SDS011;40900;52.710;6.438;2023-02-28T14:10:47;3.55;;;2.10;;
55003;SDS011;40900;52.710;6.438;2023-02-28T14:16:10;4.55;;;2.17;;
55003;SDS011;40900;52.710;6.438;2023-02-28T14:18:40;5.80;;;2.00;;
55003;SDS011;40900;52.710;6.438;2023-02-28T14:21:16;3.10;;;2.03;;
55003;SDS011;40900;52.710;6.438;2023-02-28T14:29:05;2.78;;;2.08;;
55003;SDS011;40900;52.710;6.438;2023-02-28T14:32:02;4.47;;;2.22;;
55003;SDS011;40900;52.710;6.438;2023-02-28T14:34:44;4.50;;;2.58;;
55003;SDS011;40900;52.710;6.438;2023-02-28T14:37:20;4.05;;;2.50;;
55003;SDS011;40900;52.710;6.438;2023-02-28T14:39:52;5.03;;;2.10;;
55003;SDS011;40900;52.710;6.438;2023-02-28T14:42:32;4.97;;;2.35;;
55003;SDS011;40900;52.710;6.438;2023-02-28T14:45:00;3.85;;;2.40;;
55003;SDS011;40900;52.710;6.438;2023-02-28T14:47:32;4.10;;;2.10;;
55003;SDS011;40900;52.710;6.438;2023-02-28T14:50:00;6.88;;;2.42;;
55003;SDS011;40900;52.710;6.438;2023-02-28T14:52:29;4.75;;;2.25;;
55003;SDS011;40900;52.710;6.438;2023-02-28T14:55:03;4.63;;;2.55;;
55003;SDS011;40900;52.710;6.438;2023-02-28T14:57:39;5.15;;;2.30;;
55003;SDS011;40900;52.710;6.438;2023-02-28T15:00:26;3.75;;;2.28;;
55003;SDS011;40900;52.710;6.438;2023-02-28T15:02:54;5.88;;;2.45;;
55003;SDS011;40900;52.710;6.438;2023-02-28T15:08:02;3.25;;;2.28;;
55003;SDS011;40900;52.710;6.438;2023-02-28T15:10:28;4.97;;;2.35;;
55003;SDS011;40900;52.710;6.438;2023-02-28T15:13:16;4.93;;;2.42;;
55003;SDS011;40900;52.710;6.438;2023-02-28T15:15:50;3.88;;;1.98;;
55003;SDS011;40900;52.710;6.438;2023-02-28T15:20:45;3.38;;;2.05;;
55003;SDS011;40900;52.710;6.438;2023-02-28T15:23:11;3.42;;;2.75;;
55003;SDS011;40900;52.710;6.438;2023-02-28T15:25:37;4.63;;;2.63;;
55003;SDS011;40900;52.710;6.438;2023-02-28T15:28:05;3.72;;;2.42;;
55003;SDS011;40900;52.710;6.438;2023-02-28T15:30:31;4.93;;;2.58;;
55003;SDS011;40900;52.710;6.438;2023-02-28T15:35:33;3.67;;;2.50;;
55003;SDS011;40900;52.710;6.438;2023-02-28T15:38:00;6.03;;;2.78;;
55003;SDS011;40900;52.710;6.438;2023-02-28T15:40:49;5.82;;;2.45;;
55003;SDS011;40900;52.710;6.438;2023-02-28T15:51:14;4.78;;;2.55;;
55003;SDS011;40900;52.710;6.438;2023-02-28T15:56:33;3.70;;;2.05;;
55003;SDS011;40900;52.710;6.438;2023-02-28T15:59:07;4.60;;;2.00;;
55003;SDS011;40900;52.710;6.438;2023-02-28T16:01:40;4.07;;;2.30;;
55003;SDS011;40900;52.710;6.438;2023-02-28T16:04:18;6.30;;;3.03;;
55003;SDS011;40900;52.710;6.438;2023-02-28T16:09:26;3.90;;;2.90;;
55003;SDS011;40900;52.710;6.438;2023-02-28T16:11:55;4.20;;;2.80;;
55003;SDS011;40900;52.710;6.438;2023-02-28T16:14:24;5.78;;;2.45;;
55003;SDS011;40900;52.710;6.438;2023-02-28T16:16:56;4.82;;;2.78;;
55003;SDS011;40900;52.710;6.438;2023-02-28T16:19:28;4.57;;;2.85;;
55003;SDS011;40900;52.710;6.438;2023-02-28T16:21:57;5.03;;;3.10;;
55003;SDS011;40900;52.710;6.438;2023-02-28T16:24:26;6.72;;;3.25;;
55003;SDS011;40900;52.710;6.438;2023-02-28T16:26:52;4.90;;;3.30;;
55003;SDS011;40900;52.710;6.438;2023-02-28T16:29:32;6.45;;;3.40;;
55003;SDS011;40900;52.710;6.438;2023-02-28T16:32:01;5.55;;;3.65;;
55003;SDS011;40900;52.710;6.438;2023-02-28T16:34:29;6.63;;;4.00;;
55003;SDS011;40900;52.710;6.438;2023-02-28T16:36:55;8.45;;;4.13;;
55003;SDS011;40900;52.710;6.438;2023-02-28T16:39:21;7.88;;;4.07;;
55003;SDS011;40900;52.710;6.438;2023-02-28T16:41:47;8.43;;;4.47;;
55003;SDS011;40900;52.710;6.438;2023-02-28T16:44:27;5.97;;;3.72;;
55003;SDS011;40900;52.710;6.438;2023-02-28T16:46:55;6.43;;;3.72;;
55003;SDS011;40900;52.710;6.438;2023-02-28T16:49:21;5.57;;;3.92;;
55003;SDS011;40900;52.710;6.438;2023-02-28T16:51:46;5.75;;;3.88;;
55003;SDS011;40900;52.710;6.438;2023-02-28T16:54:12;8.77;;;4.75;;
55003;SDS011;40900;52.710;6.438;2023-02-28T16:56:39;7.68;;;4.22;;
55003;SDS011;40900;52.710;6.438;2023-02-28T16:59:08;6.05;;;3.95;;
55003;SDS011;40900;52.710;6.438;2023-02-28T17:01:35;8.88;;;4.22;;
55003;SDS011;40900;52.710;6.438;2023-02-28T17:04:01;11.15;;;4.70;;
55003;SDS011;40900;52.710;6.438;2023-02-28T17:06:27;10.40;;;4.10;;
55003;SDS011;40900;52.710;6.438;2023-02-28T17:08:55;6.43;;;3.85;;
55003;SDS011;40900;52.710;6.438;2023-02-28T17:11:22;5.88;;;3.58;;
55003;SDS011;40900;52.710;6.438;2023-02-28T17:13:48;6.05;;;4.05;;
55003;SDS011;40900;52.710;6.438;2023-02-28T17:16:17;6.22;;;4.53;;
55003;SDS011;40900;52.710;6.438;2023-02-28T17:18:58;5.70;;;3.70;;